Time;durP1;ratioP1;P1;durP2;ratioP2;P2;SDS_P1;SDS_P2;PMS_P1;PMS_P2;Temp;Humidity;BMP_temperature;BMP_pressure;BME280_temperature;BME280_humidity;BME280_pressure;Samples;Min_cycle;Max_cycle;Signal;HPM_P1;HPM_P2
2022/03/17 00:01:02;;;;;;;13.00;11.70;;;;;;;10.18;80.79;101928.50;5055947;28;20072;-35
2022/03/17 00:03:28;;;;;;;12.80;11.50;;;;;;;10.22;80.69;101929.75;5055323;28;20048;-35
2022/03/17 00:05:53;;;;;;;14.27;12.83;;;;;;;10.18;80.41;101923.09;5055736;28;20441;-35
2022/03/17 00:08:19;;;;;;;14.73;13.23;;;;;;;10.04;80.51;101917.63;5055356;28;20521;-35
2022/03/17 00:10:44;;;;;;;14.05;12.75;;;;;;;10.15;80.99;101928.88;5055253;28;20021;-35
2022/03/17 00:13:11;;;;;;;14.32;12.85;;;;;;;10.12;80.76;101937.41;5055321;28;20358;-35
2022/03/17 00:15:39;;;;;;;13.55;12.25;;;;;;;10.14;81.02;101935.31;5055242;28;20032;-35
2022/03/17 00:18:05;;;;;;;13.82;12.43;;;;;;;10.06;81.28;101918.25;5054857;28;20385;-35
2022/03/17 00:20:30;;;;;;;13.17;11.97;;;;;;;10.15;81.05;101926.19;5054913;28;20025;-35
2022/03/17 00:22:55;;;;;;;14.63;13.07;;;;;;;10.12;81.31;101926.59;5055576;28;20276;-35
2022/03/17 00:25:21;;;;;;;13.90;12.30;;;;;;;10.11;81.05;101933.88;5055637;28;20056;-35
2022/03/17 00:27:46;;;;;;;13.52;12.10;;;;;;;10.07;81.31;101919.94;5054612;28;20079;-35
2022/03/17 00:30:12;;;;;;;14.68;13.23;;;;;;;10.10;81.66;101928.66;5055237;28;20029;-35
2022/03/17 00:32:38;;;;;;;16.10;12.30;;;;;;;10.05;81.85;101916.59;5054578;28;20124;-35
2022/03/17 00:37:52;;;;;;;13.60;12.20;;;;;;;10.02;81.73;101917.00;5055301;28;20063;-35
2022/03/17 00:40:17;;;;;;;15.07;12.13;;;;;;;10.03;81.61;101915.94;5055603;28;20040;-35
2022/03/17 00:42:44;;;;;;;13.43;12.02;;;;;;;10.01;82.12;101920.75;5054277;28;20112;-35
2022/03/17 00:45:09;;;;;;;;;;;;;;;10.06;81.27;101915.56;5055581;28;20037;-35
2022/03/17 00:47:35;;;;;;;12.98;11.70;;;;;;;9.96;81.42;101916.97;5053172;28;20246;-34
2022/03/17 00:50:01;;;;;;;14.63;13.23;;;;;;;9.99;81.92;101939.00;5054570;28;20448;-34
2022/03/17 00:52:26;;;;;;;12.80;11.50;;;;;;;9.93;81.80;101922.78;5054543;28;20035;-34
2022/03/17 00:54:51;;;;;;;14.33;13.00;;;;;;;9.98;82.04;101937.34;5054478;28;20396;-34
2022/03/17 00:57:16;;;;;;;13.23;11.93;;;;;;;9.91;81.85;101931.09;5054716;28;20032;-34
2022/03/17 00:59:42;;;;;;;14.33;12.80;;;;;;;9.93;82.39;101929.00;5054758;28;20453;-35
2022/03/17 01:02:08;;;;;;;13.23;12.03;;;;;;;9.94;82.65;101936.06;5054258;28;20526;-35
2022/03/17 01:04:34;;;;;;;14.48;13.05;;;;;;;10.01;82.46;101933.41;5053753;28;20059;-35
2022/03/17 01:06:59;;;;;;;14.23;12.73;;;;;;;10.02;82.31;101929.69;5054262;28;20059;-35
2022/03/17 01:09:28;;;;;;;15.20;13.15;;;;;;;10.01;82.62;101931.56;5054758;28;20416;-35
2022/03/17 01:11:53;;;;;;;15.00;12.75;;;;;;;10.02;82.88;101935.09;5054180;28;20029;-35
2022/03/17 01:14:19;;;;;;;14.68;12.27;;;;;;;10.01;82.65;101942.34;5054753;28;20040;-35
2022/03/17 01:16:44;;;;;;;12.87;11.57;;;;;;;10.10;83.52;101936.75;5053982;28;20048;-35
2022/03/17 01:19:09;;;;;;;15.17;12.60;;;;;;;10.12;83.49;101934.72;5054252;28;20040;-35
2022/03/17 01:21:35;;;;;;;14.00;12.37;;;;;;;10.16;83.29;101935.97;5054389;28;20032;-35
2022/03/17 01:24:01;;;;;;;14.27;12.80;;;;;;;10.16;83.26;101934.09;5053964;28;20029;-35
2022/03/17 01:26:26;;;;;;;13.80;12.50;;;;;;;10.05;83.02;101916.59;5053675;28;20032;-35
2022/03/17 01:28:52;;;;;;;16.02;12.57;;;;;;;10.16;83.36;101922.47;5054464;28;20031;-35
2022/03/17 01:31:18;;;;;;;14.05;12.57;;;;;;;10.17;83.36;101916.00;5054291;28;20040;-35
2022/03/17 01:33:43;;;;;;;12.50;11.35;;;;;;;10.20;83.07;101923.69;5053660;28;20445;-35
2022/03/17 01:36:09;;;;;;;14.40;12.90;;;;;;;10.11;83.50;101917.66;5053746;28;20060;-35
2022/03/17 01:38:34;;;;;;;13.90;12.60;;;;;;;10.20;83.59;101934.50;5053493;28;20032;-35
2022/03/17 01:41:00;;;;;;;13.90;12.40;;;;;;;10.20;84.19;101939.91;5054193;28;20055;-35
2022/03/17 01:43:26;;;;;;;14.88;12.48;;;;;;;10.24;84.47;101933.13;5052933;28;20029;-35
2022/03/17 01:45:52;;;;;;;12.88;11.57;;;;;;;10.26;84.01;101922.94;5053600;28;20029;-35
2022/03/17 01:48:19;;;;;;;13.52;12.13;;;;;;;10.26;84.29;101922.94;5052107;28;20028;-35
2022/03/17 01:50:45;;;;;;;14.38;12.88;;;;;;;10.25;83.85;101932.09;5053987;28;20120;-35
2022/03/17 01:53:11;;;;;;;14.40;12.52;;;;;;;10.28;83.95;101926.28;5053074;28;20032;-35
2022/03/17 01:55:37;;;;;;;16.30;13.23;;;;;;;10.28;84.29;101943.31;5053648;28;20028;-35
2022/03/17 01:58:02;;;;;;;14.18;12.80;;;;;;;10.28;84.32;101937.09;5053556;28;20056;-35
2022/03/17 02:00:28;;;;;;;14.57;13.07;;;;;;;10.29;84.86;101936.88;5054043;28;20438;-35
2022/03/17 02:02:54;;;;;;;17.37;12.70;;;;;;;10.31;84.93;101936.69;5051753;28;20294;-35
2022/03/17 02:05:20;;;;;;;;;;;;;;;10.34;85.40;101925.44;5054228;28;20021;-35
2022/03/17 02:07:54;;;;;;;14.82;12.70;;;;;;;10.32;85.44;101933.78;5053433;28;19962;-35
2022/03/17 02:10:22;;;;;;;15.38;11.82;;;;;;;10.23;86.23;101918.72;5052904;28;20029;-35
2022/03/17 02:15:32;;;;;;;13.60;11.80;;;;;;;10.29;86.25;101928.75;5053580;28;20079;-35
2022/03/17 02:17:59;;;;;;;13.60;12.18;;;;;;;10.31;86.95;101937.53;5053129;28;20025;-35
2022/03/17 02:20:25;;;;;;;14.20;12.70;;;;;;;10.32;86.72;101946.47;5053505;28;20025;-35
2022/03/17 02:22:51;;;;;;;;;;;;;;;10.34;86.76;101936.25;5053518;28;20025;-35
2022/03/17 02:25:34;;;;;;;16.63;12.05;;;;;;;10.32;86.60;101950.00;5052987;28;20277;-35
2022/03/17 02:28:02;;;;;;;15.68;13.10;;;;;;;10.31;87.19;101939.41;5051574;28;20468;-35
2022/03/17 02:30:29;;;;;;;15.27;12.05;;;;;;;10.30;87.38;101941.28;5052915;28;20416;-35
2022/03/17 02:33:00;;;;;;;16.15;13.13;;;;;;;10.28;87.63;101942.50;5052590;28;20469;-35
2022/03/17 02:35:26;;;;;;;16.70;12.77;;;;;;;10.27;87.61;101952.47;5052642;28;20029;-35
2022/03/17 02:37:52;;;;;;;15.95;13.45;;;;;;;10.28;87.34;101953.31;5052579;28;20029;-35
2022/03/17 02:40:17;;;;;;;14.97;13.47;;;;;;;10.28;88.07;101961.41;5051578;28;20130;-35
2022/03/17 02:42:43;;;;;;;15.25;13.70;;;;;;;10.23;88.29;101953.03;5052518;28;20813;-35
2022/03/17 02:45:12;;;;;;;14.30;12.80;;;;;;;10.31;87.81;101963.72;5053123;28;20370;-35
2022/03/17 02:47:39;;;;;;;14.52;13.07;;;;;;;10.31;87.76;101969.13;5052419;28;20275;-35
2022/03/17 02:50:06;;;;;;;15.25;13.65;;;;;;;10.29;88.97;101965.78;5053232;28;20461;-35
2022/03/17 02:52:31;;;;;;;15.55;13.63;;;;;;;10.32;89.16;101977.03;5053187;28;20037;-35
2022/03/17 02:54:57;;;;;;;15.68;13.98;;;;;;;10.28;89.31;101974.94;5053079;28;20373;-35
2022/03/17 02:57:23;;;;;;;18.57;13.97;;;;;;;10.32;90.21;101987.84;5056604;28;20504;-35
2022/03/17 02:59:54;;;;;;;;;;;;;;;10.37;89.44;101989.94;5057385;28;20025;-35
2022/03/17 03:02:21;;;;;;;16.55;14.95;;;;;;;10.23;92.88;101978.22;5056966;28;19912;-35
2022/03/17 03:04:47;;;;;;;18.58;15.38;;;;;;;10.30;93.77;102000.75;5057230;28;20021;-35
2022/03/17 03:07:13;;;;;;;19.55;17.48;;;;;;;10.32;95.49;102008.66;5056594;28;20082;-35
2022/03/17 03:09:38;;;;;;;19.92;16.77;;;;;;;10.30;97.88;102016.13;5056880;28;20116;-35
2022/03/17 03:12:04;;;;;;;20.10;15.93;;;;;;;10.32;98.73;102014.06;5055466;28;20458;-35
2022/03/17 03:14:30;;;;;;;14.93;11.68;;;;;;;10.26;100.00;102031.91;5057163;28;20048;-36
2022/03/17 03:16:56;;;;;;;11.65;10.43;;;;;;;10.21;100.00;102042.47;5056541;28;20025;-35
2022/03/17 03:19:21;;;;;;;11.18;10.07;;;;;;;10.14;100.00;102044.28;5056421;28;20362;-35
2022/03/17 03:21:47;;;;;;;11.20;10.10;;;;;;;10.07;100.00;102040.72;5056951;28;20096;-35
2022/03/17 03:24:13;;;;;;;8.67;7.87;;;;;;;10.00;100.00;102047.94;5055110;28;20029;-35
2022/03/17 03:26:41;;;;;;;8.43;7.53;;;;;;;9.90;100.00;102053.69;5055517;28;20279;-35
2022/03/17 03:29:25;;;;;;;8.25;7.43;;;;;;;9.90;100.00;102064.47;5055212;28;20063;-35
2022/03/17 03:31:52;;;;;;;7.80;7.07;;;;;;;9.85;100.00;102077.75;5056431;28;20033;-35
2022/03/17 03:34:18;;;;;;;7.30;6.60;;;;;;;9.80;100.00;102083.75;5056111;28;20033;-35
2022/03/17 03:39:29;;;;;;;7.90;7.20;;;;;;;9.67;100.00;102101.72;5056070;28;20047;-36
2022/03/17 03:41:54;;;;;;;8.00;7.30;;;;;;;9.62;100.00;102107.72;5056256;28;20024;-35
2022/03/17 03:44:19;;;;;;;8.50;7.80;;;;;;;9.47;100.00;102101.53;5055725;28;20275;-35
2022/03/17 03:46:45;;;;;;;9.90;9.00;;;;;;;9.44;100.00;102118.94;5056688;28;20025;-36
2022/03/17 03:49:10;;;;;;;10.20;9.20;;;;;;;9.42;100.00;102129.13;5056482;28;20041;-35
2022/03/17 03:51:36;;;;;;;11.63;10.55;;;;;;;9.34;100.00;102131.94;5056558;28;20033;-35
2022/03/17 03:54:15;;;;;;;11.90;10.70;;;;;;;9.32;100.00;102138.53;5055982;28;20066;-35
2022/03/17 03:56:46;;;;;;;12.45;11.25;;;;;;;9.25;100.00;102157.38;5056012;28;20355;-36
2022/03/17 03:59:21;;;;;;;13.02;11.45;;;;;;;9.15;100.00;102154.97;5055672;28;20027;-35
2022/03/17 04:01:53;;;;;;;11.43;10.32;;;;;;;9.07;100.00;102154.25;5055823;28;20051;-35
2022/03/17 04:04:19;;;;;;;11.50;10.40;;;;;;;9.08;100.00;102172.97;5055542;28;20060;-35
2022/03/17 04:06:49;;;;;;;12.70;11.32;;;;;;;9.07;100.00;102181.22;5055042;28;20082;-35
2022/03/17 04:09:17;;;;;;;15.68;13.52;;;;;;;8.97;100.00;102190.44;5055794;28;20421;-35
2022/03/17 04:11:44;;;;;;;15.07;13.23;;;;;;;8.91;100.00;102193.91;5055713;28;20385;-35
2022/03/17 04:14:09;;;;;;;;;;;;;;;8.99;99.79;102193.81;5056091;28;20079;-35
2022/03/17 04:16:35;;;;;;;15.57;12.98;;;;;;;8.86;100.00;102198.19;5055446;28;19909;-35
2022/03/17 04:19:01;;;;;;;14.63;13.13;;;;;;;8.83;100.00;102206.63;5055365;28;20025;-35
2022/03/17 04:21:26;;;;;;;15.27;13.07;;;;;;;8.70;100.00;102204.59;5055807;28;20037;-35
2022/03/17 04:23:52;;;;;;;15.23;13.63;;;;;;;8.77;100.00;102227.94;5054948;28;20108;-35
2022/03/17 04:26:17;;;;;;;15.00;12.90;;;;;;;8.75;100.00;102238.09;5055587;28;20029;-35
2022/03/17 04:28:43;;;;;;;13.90;12.43;;;;;;;8.70;100.00;102242.38;5055253;28;20036;-35
2022/03/17 04:31:09;;;;;;;14.23;12.82;;;;;;;8.70;100.00;102245.06;5055714;28;20025;-35
2022/03/17 04:33:34;;;;;;;15.60;12.65;;;;;;;8.68;100.00;102266.78;5054891;28;20037;-35
2022/03/17 04:36:02;;;;;;;14.02;12.52;;;;;;;8.67;100.00;102267.00;5055335;28;20385;-35
2022/03/17 04:38:27;;;;;;;14.18;12.77;;;;;;;8.64;100.00;102272.75;5054274;28;20033;-35
2022/03/17 04:40:53;;;;;;;15.32;13.73;;;;;;;8.55;100.00;102257.69;5054924;28;20385;-35
2022/03/17 04:43:18;;;;;;;16.38;13.98;;;;;;;8.56;100.00;102291.72;5054855;28;20113;-35
2022/03/17 04:45:45;;;;;;;14.70;13.30;;;;;;;8.52;100.00;102302.84;5055551;28;20029;-35
2022/03/17 04:48:10;;;;;;;;;;;;;;;8.58;100.00;102297.75;5055077;28;20275;-35
2022/03/17 04:50:36;;;;;;;14.50;13.05;;;;;;;8.48;100.00;102312.31;5055412;28;20003;-35
2022/03/17 04:55:45;;;;;;;15.68;14.02;;;;;;;8.36;100.00;102321.88;5055175;28;20039;-35
2022/03/17 04:58:11;;;;;;;15.43;13.90;;;;;;;8.31;100.00;102328.78;5055059;28;20033;-35
2022/03/17 05:00:36;;;;;;;17.00;13.97;;;;;;;8.32;100.00;102328.59;5054498;28;20044;-35
2022/03/17 05:03:01;;;;;;;16.17;13.67;;;;;;;8.24;100.00;102337.56;5054088;28;20638;-35
2022/03/17 05:05:27;;;;;;;16.45;11.57;;;;;;;8.13;100.00;102329.06;5054688;28;20029;-35
2022/03/17 05:07:57;;;;;;;11.68;9.10;;;;;;;8.18;100.00;102364.41;5054704;28;20025;-35
2022/03/17 05:10:23;;;;;;;12.23;7.20;;;;;;;8.07;98.85;102362.94;5054585;28;20056;-35
2022/03/17 05:12:48;;;;;;;10.60;5.72;;;;;;;8.10;97.99;102394.06;5054302;28;20033;-35
2022/03/17 05:15:14;;;;;;;11.67;6.03;;;;;;;8.07;97.84;102391.75;5054636;28;20370;-35
2022/03/17 05:17:40;;;;;;;12.77;6.57;;;;;;;8.02;97.96;102397.66;5054063;28;20275;-35
2022/03/17 05:20:09;;;;;;;9.68;4.63;;;;;;;7.98;95.79;102413.34;5054125;28;20052;-35
2022/03/17 05:22:34;;;;;;;8.60;4.55;;;;;;;7.93;95.85;102425.66;5054154;28;20445;-35
2022/03/17 05:25:00;;;;;;;10.85;4.85;;;;;;;7.88;96.06;102433.41;5054043;28;20032;-35
2022/03/17 05:27:25;;;;;;;11.97;3.33;;;;;;;7.86;95.10;102441.69;5054071;28;20033;-35
2022/03/17 05:29:51;;;;;;;8.93;3.13;;;;;;;7.83;93.57;102452.78;5054243;28;20024;-35
2022/03/17 05:32:16;;;;;;;10.37;2.47;;;;;;;7.79;93.66;102448.75;5054265;28;20059;-35
2022/03/17 05:34:42;;;;;;;7.60;2.43;;;;;;;7.73;92.89;102442.22;5054286;28;20052;-35
2022/03/17 05:37:07;;;;;;;7.40;2.20;;;;;;;7.78;93.19;102455.16;5054123;28;20363;-35
2022/03/17 05:39:32;;;;;;;12.27;2.50;;;;;;;7.78;92.46;102465.09;5054597;28;20051;-35
2022/03/17 05:41:57;;;;;;;6.70;2.93;;;;;;;7.78;92.49;102471.31;5054008;28;20170;-35
2022/03/17 05:44:23;;;;;;;8.33;3.13;;;;;;;7.74;92.42;102473.53;5053951;28;20087;-34
2022/03/17 05:46:48;;;;;;;10.43;2.90;;;;;;;7.76;92.80;102486.84;5054261;28;20488;-34
2022/03/17 05:49:14;;;;;;;6.87;2.50;;;;;;;7.79;92.71;102489.16;5053896;28;20076;-34
2022/03/17 05:51:39;;;;;;;6.57;2.27;;;;;;;7.79;92.82;102496.41;5053335;28;20033;-34
2022/03/17 05:54:06;;;;;;;7.22;2.10;;;;;;;7.75;91.80;102503.97;5053515;28;20519;-34
2022/03/17 05:56:31;;;;;;;9.30;2.55;;;;;;;7.74;92.53;102518.47;5053452;28;20449;-34
2022/03/17 05:58:56;;;;;;;8.40;2.47;;;;;;;7.72;91.70;102515.94;5053154;28;20116;-34
2022/03/17 06:01:22;;;;;;;7.20;2.27;;;;;;;7.60;91.01;102511.91;5053075;28;20108;-34
2022/03/17 06:03:47;;;;;;;7.33;2.13;;;;;;;7.61;91.02;102527.09;5053422;28;20366;-34
2022/03/17 06:06:13;;;;;;;5.10;2.27;;;;;;;7.66;90.66;102542.69;5053414;28;20029;-34
2022/03/17 06:08:38;;;;;;;4.83;1.67;;;;;;;7.61;91.00;102540.53;5052407;28;20052;-34
2022/03/17 06:11:06;;;;;;;3.20;1.37;;;;;;;7.57;91.49;102551.81;5053013;28;20025;-34
2022/03/17 06:13:32;;;;;;;5.13;1.85;;;;;;;7.54;90.86;102565.59;5053204;28;20040;-34
2022/03/17 06:15:57;;;;;;;5.63;1.57;;;;;;;7.55;90.97;102570.81;5053996;28;20021;-34
2022/03/17 06:18:22;;;;;;;6.67;2.30;;;;;;;7.52;90.78;102564.94;5053177;28;20381;-35
2022/03/17 06:20:48;;;;;;;6.10;1.83;;;;;;;7.51;90.44;102568.63;5051898;28;20123;-34
2022/03/17 06:23:13;;;;;;;3.87;1.47;;;;;;;7.51;89.98;102576.69;5053088;28;20114;-35
2022/03/17 06:25:39;;;;;;;8.20;1.87;;;;;;;7.44;89.63;102582.75;5053431;28;20040;-34
2022/03/17 06:28:05;;;;;;;15.55;2.08;;;;;;;7.52;89.67;102591.88;5053298;28;20102;-34
2022/03/17 06:30:31;;;;;;;6.97;2.00;;;;;;;7.49;89.49;102596.56;5053448;28;20033;-34
2022/03/17 06:32:59;;;;;;;4.40;1.27;;;;;;;7.50;90.73;102602.78;5053791;28;20029;-34
2022/03/17 06:35:28;;;;;;;3.60;1.40;;;;;;;7.48;90.24;102610.19;5052975;28;20084;-36
2022/03/17 06:37:57;;;;;;;7.43;1.63;;;;;;;7.49;90.83;102622.66;5052934;28;20469;-35
2022/03/17 06:40:24;;;;;;;7.15;1.77;;;;;;;7.42;90.45;102611.72;5053312;28;20358;-35
2022/03/17 06:42:50;;;;;;;5.15;1.50;;;;;;;7.53;91.35;102631.25;5052876;28;20033;-35
2022/03/17 06:45:16;;;;;;;3.78;1.60;;;;;;;7.49;90.47;102636.09;5051677;28;20048;-35
2022/03/17 06:47:42;;;;;;;5.72;1.60;;;;;;;7.42;91.19;102629.72;5052619;28;20029;-35
2022/03/17 06:50:09;;;;;;;7.83;1.80;;;;;;;7.43;90.51;102636.78;5053348;28;20053;-35
2022/03/17 06:52:34;;;;;;;6.97;1.70;;;;;;;7.51;91.00;102652.91;5052579;28;20290;-35
2022/03/17 06:55:00;;;;;;;6.45;1.80;;;;;;;7.53;90.16;102658.16;5053687;28;20032;-35
2022/03/17 06:57:25;;;;;;;8.07;2.00;;;;;;;7.53;90.30;102666.22;5052606;28;20028;-35
2022/03/17 06:59:51;;;;;;;8.77;1.90;;;;;;;7.51;91.17;102671.75;5053096;28;20371;-35
2022/03/17 07:02:18;;;;;;;10.40;2.00;;;;;;;7.46;90.31;102668.72;5052423;28;20025;-35
2022/03/17 07:04:43;;;;;;;;;;;;;;;7.59;90.83;102674.47;5052855;28;20029;-35
2022/03/17 07:07:09;;;;;;;8.30;2.03;;;;;;;7.46;90.72;102671.41;5052932;28;19909;-35
2022/03/17 07:09:35;;;;;;;4.90;1.50;;;;;;;7.55;90.07;102686.59;5052947;28;20033;-35
2022/03/17 07:12:01;;;;;;;;;;;;;;;7.61;89.62;102687.75;5053105;28;20150;-35
2022/03/17 07:14:27;;;;;;;4.28;1.50;;;;;;;7.47;89.32;102682.03;5052926;28;20373;-35
2022/03/17 07:16:52;;;;;;;7.55;2.00;;;;;;;7.55;89.57;102701.91;5068107;28;20454;-35
2022/03/17 07:19:17;;;;;;;6.87;1.87;;;;;;;7.53;89.71;102710.16;5052379;28;20052;-35
2022/03/17 07:21:43;;;;;;;5.57;1.50;;;;;;;7.55;89.49;102715.34;5052259;28;20044;-35
2022/03/17 07:24:09;;;;;;;7.27;1.80;;;;;;;7.57;90.31;102722.28;5050852;28;20044;-35
2022/03/17 07:26:35;;;;;;;6.30;1.70;;;;;;;7.55;91.67;102728.81;5052739;28;20367;-35
2022/03/17 07:29:02;;;;;;;9.73;2.20;;;;;;;7.56;91.86;102731.34;5052842;28;20044;-35
2022/03/17 07:31:28;;;;;;;6.78;2.00;;;;;;;7.47;92.96;102730.50;5052476;28;20111;-35
2022/03/17 07:33:53;;;;;;;4.57;1.70;;;;;;;7.54;92.93;102743.28;5052691;28;20113;-35
2022/03/17 07:36:19;;;;;;;7.00;1.53;;;;;;;7.47;93.12;102743.97;5052785;28;20116;-36
2022/03/17 07:38:44;;;;;;;;;;;;;;;7.59;92.17;102751.72;5052947;28;20033;-35
2022/03/17 07:41:10;;;;;;;7.90;1.65;;;;;;;7.51;92.41;102749.00;5053091;28;19909;-35
2022/03/17 07:43:35;;;;;;;5.37;1.60;;;;;;;7.52;92.80;102766.84;5056035;28;20035;-35
2022/03/17 07:46:00;;;;;;;6.07;1.70;;;;;;;7.48;93.28;102775.25;5056286;28;20059;-35
2022/03/17 07:48:26;;;;;;;5.93;1.90;;;;;;;7.48;93.67;102774.41;5055713;28;20041;-35
2022/03/17 07:50:52;;;;;;;6.60;1.60;;;;;;;7.51;93.75;102771.38;5056376;28;20048;-35
2022/03/17 07:53:18;;;;;;;5.73;1.80;;;;;;;7.51;92.50;102775.91;5054658;28;20421;-35
2022/03/17 07:55:44;;;;;;;11.30;2.03;;;;;;;7.53;92.59;102780.16;5055612;28;20107;-35
2022/03/17 07:58:12;;;;;;;7.40;1.95;;;;;;;7.44;92.11;102767.66;5055813;28;20037;-35
2022/03/17 08:00:39;;;;;;;6.93;1.90;;;;;;;7.56;92.12;102784.34;5056036;28;20389;-35
2022/03/17 08:03:05;;;;;;;7.60;1.98;;;;;;;7.59;91.71;102798.31;5055245;28;20032;-35
2022/03/17 08:05:30;;;;;;;9.32;2.40;;;;;;;7.61;91.70;102792.78;5055759;28;20457;-35
2022/03/17 08:07:56;;;;;;;8.23;1.90;;;;;;;7.60;91.18;102812.63;5055633;28;20033;-35
2022/03/17 08:10:22;;;;;;;7.95;2.22;;;;;;;7.60;91.26;102815.31;5056645;28;20071;-35
2022/03/17 08:12:48;;;;;;;12.18;2.08;;;;;;;7.57;90.87;102823.75;5055245;28;20557;-35
2022/03/17 08:15:14;;;;;;;6.55;1.63;;;;;;;7.56;90.71;102824.72;5055502;28;20488;-35
2022/03/17 08:17:39;;;;;;;6.68;1.77;;;;;;;7.55;89.88;102831.13;5055478;28;20025;-35
2022/03/17 08:20:05;;;;;;;10.67;1.80;;;;;;;7.59;89.12;102835.19;5055507;28;20515;-35
2022/03/17 08:22:31;;;;;;;9.57;2.05;;;;;;;7.58;88.29;102841.56;5055208;28;20021;-35
2022/03/17 08:24:57;;;;;;;;;;;;;;;7.64;87.65;102854.38;5056529;28;20025;-35
2022/03/17 08:27:22;;;;;;;8.20;2.27;;;;;;;7.67;88.35;102856.75;5055204;28;20268;-35
2022/03/17 08:29:48;;;;;;;9.50;2.30;;;;;;;7.74;87.85;102860.47;5055010;28;20291;-35
2022/03/17 08:32:14;;;;;;;7.90;1.90;;;;;;;7.78;86.74;102869.94;5055167;28;20032;-34
2022/03/17 08:34:39;;;;;;;6.65;1.70;;;;;;;7.83;86.62;102870.28;5055137;28;20039;-34
2022/03/17 08:37:05;;;;;;;6.95;2.20;;;;;;;7.77;85.12;102867.41;5055301;28;20465;-34
2022/03/17 08:39:30;;;;;;;9.00;2.00;;;;;;;7.74;85.41;102850.53;5054777;28;20025;-34
2022/03/17 08:41:56;;;;;;;8.33;2.40;;;;;;;7.89;84.49;102876.84;5053674;28;20142;-35
2022/03/17 08:44:22;;;;;;;9.25;2.47;;;;;;;7.90;83.75;102878.53;5055253;28;20440;-35
2022/03/17 08:49:31;;;;;;;9.52;2.70;;;;;;;7.93;81.39;102900.63;5055384;28;20134;-35
2022/03/17 08:52:02;;;;;;;4.70;1.53;;;;;;;7.89;81.03;102893.84;5054812;28;20497;-35
2022/03/17 08:54:29;;;;;;;11.00;1.88;;;;;;;7.94;80.63;102896.91;5055185;28;20417;-35
2022/03/17 08:57:00;;;;;;;5.72;1.38;;;;;;;7.98;79.25;102892.88;5055116;28;20040;-35
2022/03/17 08:59:36;;;;;;;5.18;1.40;;;;;;;8.13;80.25;102903.88;5055256;28;20458;-35
2022/03/17 09:02:07;;;;;;;6.40;1.60;;;;;;;8.16;78.75;102916.19;5055098;28;20116;-35
2022/03/17 09:04:33;;;;;;;9.15;2.00;;;;;;;8.10;77.74;102923.06;5055034;28;20028;-35
2022/03/17 09:07:00;;;;;;;7.35;1.67;;;;;;;8.08;79.30;102908.06;5055222;28;20078;-35
2022/03/17 09:09:27;;;;;;;6.65;1.83;;;;;;;8.13;78.44;102928.13;5054649;28;20519;-35
2022/03/17 09:11:53;;;;;;;9.10;1.80;;;;;;;8.11;78.81;102932.84;5055000;28;20462;-35
2022/03/17 09:14:18;;;;;;;6.85;1.98;;;;;;;8.19;78.92;102929.31;5054620;28;20119;-35
2022/03/17 09:16:43;;;;;;;9.63;2.40;;;;;;;8.22;78.04;102929.00;5054869;28;20515;-35
2022/03/17 09:19:09;;;;;;;7.50;1.70;;;;;;;8.22;78.53;102931.69;5054313;28;20107;-35
2022/03/17 09:21:35;;;;;;;5.87;1.27;;;;;;;8.32;78.14;102932.38;5054655;28;20025;-34
2022/03/17 09:24:01;;;;;;;7.55;1.95;;;;;;;8.27;76.55;102934.72;5054664;28;20025;-35
2022/03/17 09:26:26;;;;;;;8.30;2.10;;;;;;;8.26;76.85;102935.75;5054642;28;20365;-35
2022/03/17 09:28:52;;;;;;;5.17;1.57;;;;;;;8.37;76.91;102956.19;5053789;28;20021;-35
2022/03/17 09:31:18;;;;;;;10.93;1.67;;;;;;;8.41;76.65;102958.38;5054368;28;20278;-35
2022/03/17 09:33:45;;;;;;;9.02;2.13;;;;;;;8.33;77.51;102938.63;5053759;28;20029;-35
2022/03/17 09:36:11;;;;;;;9.32;1.73;;;;;;;8.50;77.24;102970.88;5053644;28;20040;-35
2022/03/17 09:38:36;;;;;;;6.93;2.17;;;;;;;8.51;75.90;102967.16;5053660;28;20025;-35
2022/03/17 09:41:23;;;;;;;5.87;2.10;;;;;;;8.55;75.15;102965.00;5053877;28;20036;-35
2022/03/17 09:43:47;;;;;;;5.47;1.38;;;;;;;8.57;74.23;102975.59;5053665;28;20047;-35
2022/03/17 09:46:14;;;;;;;6.40;1.70;;;;;;;8.56;73.77;102977.47;5054529;28;20033;-35
2022/03/17 09:48:40;;;;;;;5.68;1.40;;;;;;;8.48;73.30;102975.56;5054128;28;20462;-35
2022/03/17 09:51:05;;;;;;;6.75;1.35;;;;;;;8.44;74.62;102989.56;5053997;28;20029;-35
2022/03/17 09:53:31;;;;;;;9.32;1.45;;;;;;;8.49;74.84;102998.00;5053843;28;20029;-35
2022/03/17 09:55:56;;;;;;;9.57;1.45;;;;;;;8.47;73.85;103000.03;5054060;28;20516;-35
2022/03/17 09:58:22;;;;;;;7.53;1.93;;;;;;;8.55;74.50;103007.31;5053353;28;20072;-35
2022/03/17 10:00:47;;;;;;;9.52;1.85;;;;;;;8.57;74.12;103006.13;5053493;28;20500;-35
2022/03/17 10:03:16;;;;;;;7.30;1.63;;;;;;;8.42;72.93;103002.38;5053360;28;20029;-35
2022/03/17 10:05:44;;;;;;;6.43;1.63;;;;;;;8.53;72.89;103020.94;5052901;28;20440;-35
2022/03/17 10:08:09;;;;;;;8.70;1.88;;;;;;;8.50;72.71;103016.72;5054145;28;20445;-35
2022/03/17 10:10:36;;;;;;;6.20;1.10;;;;;;;8.56;73.27;103025.16;5053468;28;20029;-35
2022/03/17 10:13:06;;;;;;;4.95;1.15;;;;;;;8.56;72.94;103036.78;5054193;28;20037;-35
2022/03/17 10:15:31;;;;;;;4.90;1.52;;;;;;;8.58;72.48;103034.75;5053635;28;20052;-35
2022/03/17 10:17:57;;;;;;;5.45;1.27;;;;;;;8.66;71.97;103042.88;5053359;28;20028;-35
2022/03/17 10:20:29;;;;;;;5.73;1.40;;;;;;;8.69;71.29;103055.22;5053044;28;20029;-35
2022/03/17 10:23:01;;;;;;;6.47;1.85;;;;;;;8.71;70.98;103058.56;5053457;28;20457;-35
2022/03/17 10:25:30;;;;;;;4.82;1.17;;;;;;;8.67;71.22;103049.13;5052898;28;20033;-35
2022/03/17 10:27:57;;;;;;;3.58;1.35;;;;;;;8.71;71.11;103059.41;5053105;28;20101;-35
2022/03/17 10:30:27;;;;;;;3.03;0.95;;;;;;;8.82;72.06;103079.00;5053186;28;20039;-40
2022/03/17 10:32:57;;;;;;;4.35;1.33;;;;;;;8.74;70.39;103082.53;5053103;28;20048;-35
2022/03/17 10:35:45;;;;;;;7.68;1.23;;;;;;;8.73;72.38;103070.03;5053602;28;20029;-34
2022/03/17 10:38:15;;;;;;;3.92;1.35;;;;;;;8.75;71.75;103087.75;5053447;28;20109;-34
2022/03/17 10:40:42;;;;;;;4.35;1.60;;;;;;;8.58;70.98;103074.38;5053543;28;20370;-34
2022/03/17 10:43:17;;;;;;;4.70;1.20;;;;;;;8.60;71.48;103094.78;5052580;28;20033;-34
2022/03/17 10:45:43;;;;;;;3.92;1.10;;;;;;;8.61;69.52;103098.34;5053249;28;20044;-34
2022/03/17 10:48:09;;;;;;;5.72;1.45;;;;;;;8.58;70.06;103090.56;5052769;28;20033;-34
2022/03/17 10:50:45;;;;;;;5.43;1.10;;;;;;;8.61;70.54;103087.53;5054036;28;20132;-34
2022/03/17 10:53:11;;;;;;;3.88;1.15;;;;;;;8.79;70.09;103111.72;5053198;28;20037;-34
2022/03/17 10:55:38;;;;;;;2.50;1.23;;;;;;;8.64;68.13;103082.69;5051863;28;20090;-34
2022/03/17 10:58:19;;;;;;;4.72;1.35;;;;;;;8.90;68.80;103106.84;5053305;28;20362;-35
2022/03/17 11:00:51;;;;;;;3.67;1.20;;;;;;;8.95;67.88;103112.59;5051717;28;20456;-35
2022/03/17 11:03:18;;;;;;;4.20;1.33;;;;;;;9.01;66.71;103116.47;5052646;28;20021;-35
2022/03/17 11:05:44;;;;;;;6.88;1.17;;;;;;;9.05;67.08;103117.84;5053322;28;20025;-35
2022/03/17 11:08:10;;;;;;;4.90;1.27;;;;;;;9.01;67.11;103111.94;5053025;28;20468;-35
2022/03/17 11:10:39;;;;;;;4.82;1.20;;;;;;;9.17;68.26;103129.16;5053012;28;20416;-35
2022/03/17 11:13:09;;;;;;;7.43;1.10;;;;;;;9.21;67.80;103127.81;5052681;28;20037;-35
2022/03/17 11:15:38;;;;;;;6.50;1.13;;;;;;;9.27;68.34;103136.13;5052695;28;20033;-35
2022/03/17 11:18:18;;;;;;;5.00;1.38;;;;;;;9.31;67.74;103147.41;5055297;28;20505;-35
2022/03/17 11:20:45;;;;;;;4.22;1.50;;;;;;;9.37;68.44;103146.78;5056528;28;20108;-35
2022/03/17 11:23:20;;;;;;;4.88;1.90;;;;;;;9.42;68.05;103152.50;5056564;28;20033;-35
2022/03/17 11:25:58;;;;;;;4.88;1.50;;;;;;;9.40;67.74;103146.41;5056464;28;20052;-35
2022/03/17 11:28:39;;;;;;;4.45;1.63;;;;;;;9.47;68.77;103154.72;5056673;28;20036;-35
2022/03/17 11:31:07;;;;;;;6.53;1.40;;;;;;;9.45;67.70;103154.84;5056599;28;20029;-35
2022/03/17 11:33:41;;;;;;;5.95;1.63;;;;;;;9.52;67.84;103157.75;5056556;28;20099;-35
2022/03/17 11:36:09;;;;;;;3.45;1.10;;;;;;;9.55;68.32;103157.41;5056593;28;20040;-35
2022/03/17 11:38:36;;;;;;;6.70;1.38;;;;;;;9.60;67.85;103159.59;5055886;28;20032;-35